createdAt,value
2022-11-17T00:03:14.841Z,28.98
2022-11-17T00:08:13.859Z,32.28
2022-11-17T00:13:32.099Z,27.80
2022-11-17T00:18:48.636Z,23.08
2022-11-17T00:23:50.708Z,18.55
2022-11-17T00:28:54.647Z,19.03
2022-11-17T00:34:08.552Z,17.65
2022-11-17T00:39:07.813Z,17.02
2022-11-17T00:44:08.935Z,16.52
2022-11-17T00:49:08.911Z,18.60
2022-11-17T00:54:08.806Z,14.80
2022-11-17T00:59:08.931Z,15.98
2022-11-17T01:04:08.282Z,18.10
2022-11-17T01:09:10.985Z,19.45
2022-11-17T01:14:14.115Z,17.67
2022-11-17T01:24:13.547Z,15.52
2022-11-17T01:29:17.236Z,15.52
2022-11-17T01:34:16.068Z,14.60
2022-11-17T01:39:17.662Z,13.18
2022-11-17T01:44:53.595Z,16.83
2022-11-17T01:49:57.650Z,15.73
2022-11-17T01:54:58.546Z,16.30
2022-11-17T02:00:02.881Z,13.02
2022-11-17T02:05:18.031Z,16.05
2022-11-17T02:10:17.379Z,15.38
2022-11-17T02:15:16.356Z,15.13
2022-11-17T02:20:23.579Z,16.08
2022-11-17T02:25:39.840Z,13.90
2022-11-17T02:30:50.565Z,17.67
2022-11-17T02:35:57.391Z,25.33
2022-11-17T02:41:06.093Z,21.20
2022-11-17T02:46:09.864Z,20.23
2022-11-17T02:51:13.308Z,19.75
2022-11-17T02:56:12.132Z,24.60
2022-11-17T03:01:27.205Z,34.45
2022-11-17T03:06:36.039Z,35.17
2022-11-17T03:11:43.725Z,31.38
2022-11-17T03:16:52.711Z,40.05
2022-11-17T03:21:57.132Z,39.65
2022-11-17T03:27:01.850Z,42.60
2022-11-17T03:32:06.113Z,41.80
2022-11-17T03:37:08.274Z,37.08
2022-11-17T03:42:13.420Z,38.57
2022-11-17T03:47:14.565Z,44.97
2022-11-17T03:52:13.317Z,41.65
2022-11-17T03:57:15.932Z,35.55
2022-11-17T04:02:18.680Z,38.67
2022-11-17T04:07:17.550Z,38.75
2022-11-17T04:12:33.517Z,41.00
2022-11-17T04:17:33.573Z,40.13
2022-11-17T04:22:32.329Z,41.65
2022-11-17T04:27:48.338Z,44.92
2022-11-17T04:32:48.332Z,43.30
2022-11-17T04:37:47.025Z,50.05
2022-11-17T04:42:45.687Z,47.38
2022-11-17T04:47:44.397Z,46.35
2022-11-17T04:52:44.876Z,45.00
2022-11-17T04:57:46.251Z,42.33
2022-11-17T05:02:44.955Z,45.67
2022-11-17T05:07:45.260Z,29.25
2022-11-17T05:13:01.365Z,21.20
2022-11-17T05:18:01.166Z,21.48
2022-11-17T05:23:20.416Z,21.00
2022-11-17T05:28:19.505Z,17.85
2022-11-17T05:33:18.858Z,16.88
2022-11-17T05:38:18.943Z,20.77
2022-11-17T05:43:17.717Z,15.77
2022-11-17T05:48:16.688Z,22.23
2022-11-17T05:53:15.407Z,18.73
2022-11-17T05:58:21.171Z,14.80
2022-11-17T06:03:24.528Z,15.63
2022-11-17T06:08:23.272Z,15.40
2022-11-17T06:13:26.193Z,21.13
2022-11-17T06:18:28.591Z,17.08
2022-11-17T06:23:30.110Z,15.18
2022-11-17T06:28:32.348Z,16.38
2022-11-17T06:33:33.798Z,16.70
2022-11-17T06:38:34.466Z,14.02
2022-11-17T06:43:34.963Z,13.82
2022-11-17T06:48:36.749Z,15.93
2022-11-17T06:53:36.294Z,16.45
2022-11-17T06:58:38.470Z,16.05
2022-11-17T07:03:38.704Z,20.92
2022-11-17T07:08:38.537Z,15.40
2022-11-17T07:13:39.401Z,16.40
2022-11-17T07:18:38.949Z,13.98
2022-11-17T07:23:39.220Z,13.60
2022-11-17T07:28:39.635Z,16.88
2022-11-17T07:33:41.609Z,20.85
2022-11-17T07:38:45.683Z,88.22
2022-11-17T07:43:49.332Z,25.77
2022-11-17T07:48:48.139Z,24.98
2022-11-17T07:53:46.926Z,22.80
2022-11-17T07:58:45.713Z,21.92
2022-11-17T08:03:46.143Z,20.30
2022-11-17T08:08:44.951Z,31.85
2022-11-17T08:13:43.826Z,19.92
2022-11-17T08:18:45.952Z,18.27
2022-11-17T08:23:51.304Z,21.05
2022-11-17T08:28:53.709Z,19.65
2022-11-17T08:33:56.837Z,16.20
2022-11-17T08:38:57.099Z,16.98
2022-11-17T08:43:56.137Z,17.60
2022-11-17T08:48:57.151Z,23.58
2022-11-17T08:53:59.829Z,20.25
2022-11-17T08:58:58.544Z,16.08
2022-11-17T09:03:57.328Z,14.55
2022-11-17T09:08:57.827Z,13.35
2022-11-17T09:13:56.811Z,15.05
2022-11-17T09:18:57.123Z,20.95
2022-11-17T09:23:57.316Z,10.90
2022-11-17T09:28:56.023Z,12.57
2022-11-17T09:33:54.890Z,22.90
2022-11-17T09:38:53.748Z,10.88
2022-11-17T09:44:03.765Z,10.32
2022-11-17T09:49:11.999Z,14.00
2022-11-17T09:54:19.796Z,11.88
2022-11-17T09:59:23.028Z,11.48
2022-11-17T10:04:22.597Z,9.68
2022-11-17T10:09:36.233Z,14.40
2022-11-17T10:14:40.806Z,18.02
2022-11-17T10:19:39.932Z,15.30
2022-11-17T10:24:41.608Z,14.50
2022-11-17T10:29:41.703Z,16.48
2022-11-17T10:34:41.579Z,11.63
2022-11-17T10:39:42.781Z,15.25
2022-11-17T10:44:44.503Z,20.58
2022-11-17T10:49:43.244Z,16.30
2022-11-17T10:54:42.064Z,15.85
2022-11-17T10:59:49.676Z,16.17
2022-11-17T11:05:07.731Z,18.02
2022-11-17T11:10:15.947Z,20.83
2022-11-17T11:15:21.195Z,21.52
2022-11-17T11:20:22.774Z,27.33
2022-11-17T11:25:35.058Z,27.80
2022-11-17T11:30:39.770Z,27.67
2022-11-17T11:35:50.314Z,32.88
2022-11-17T11:41:06.317Z,28.55
2022-11-17T11:46:27.490Z,29.23
2022-11-17T11:51:30.778Z,27.27
2022-11-17T11:56:34.593Z,29.23
2022-11-17T12:01:45.355Z,22.90
2022-11-17T12:06:53.983Z,22.88
2022-11-17T12:12:03.967Z,20.80
2022-11-17T12:17:07.971Z,18.42
2022-11-17T12:22:06.773Z,15.82
2022-11-17T12:27:32.699Z,18.25
2022-11-17T12:32:55.457Z,12.52
2022-11-17T12:38:27.549Z,14.05
2022-11-17T12:43:27.822Z,22.73
2022-11-17T12:48:34.761Z,18.10
2022-11-17T12:53:53.658Z,12.02
2022-11-17T12:59:06.063Z,17.95
2022-11-17T13:04:13.327Z,16.73
2022-11-17T13:09:13.274Z,9.88
2022-11-17T13:14:14.515Z,9.73
2022-11-17T13:19:33.661Z,12.27
2022-11-17T13:24:35.213Z,10.80
2022-11-17T13:29:34.100Z,7.53
2022-11-17T13:34:34.271Z,8.02
2022-11-17T13:39:32.982Z,12.23
2022-11-17T13:44:34.180Z,30.52
2022-11-17T13:49:35.960Z,28.70
2022-11-17T13:54:37.133Z,10.03
2022-11-17T13:59:43.385Z,10.73
2022-11-17T14:05:24.139Z,9.20
2022-11-17T14:10:33.507Z,16.70
2022-11-17T14:15:35.429Z,14.55
2022-11-17T14:20:37.415Z,14.20
2022-11-17T14:25:40.643Z,13.90
2022-11-17T14:30:40.266Z,13.63
2022-11-17T14:35:40.875Z,16.63
2022-11-17T14:40:42.720Z,16.33
2022-11-17T14:45:44.606Z,15.47
2022-11-17T14:50:44.673Z,14.40
2022-11-17T14:55:44.402Z,12.38
2022-11-17T15:00:43.462Z,15.02
2022-11-17T15:05:47.450Z,27.15
2022-11-17T15:10:46.950Z,21.67
2022-11-17T15:15:45.880Z,19.58
2022-11-17T15:20:44.777Z,12.82
2022-11-17T15:25:45.063Z,14.25
2022-11-17T15:30:44.136Z,17.23
2022-11-17T15:35:43.063Z,12.73
2022-11-17T15:40:42.002Z,14.50
2022-11-17T15:45:45.214Z,13.05
2022-11-17T15:50:44.061Z,14.05
2022-11-17T15:55:42.884Z,15.95
2022-11-17T16:00:43.193Z,12.48
2022-11-17T16:05:42.140Z,14.60
2022-11-17T16:10:41.263Z,12.20
2022-11-17T16:15:40.146Z,14.38
2022-11-17T16:20:40.374Z,17.95
2022-11-17T16:25:41.340Z,16.20
2022-11-17T16:30:40.493Z,14.00
2022-11-17T16:35:46.247Z,15.82
2022-11-17T16:40:45.471Z,14.45
2022-11-17T16:45:46.171Z,16.52
2022-11-17T16:50:50.818Z,14.43
2022-11-17T16:55:55.973Z,15.68
2022-11-17T17:00:59.264Z,13.77
2022-11-17T17:11:09.449Z,16.70
2022-11-17T17:16:11.575Z,16.38
2022-11-17T17:21:22.101Z,16.92
2022-11-17T17:26:23.605Z,16.77
2022-11-17T17:31:25.186Z,17.45
2022-11-17T17:36:27.202Z,17.08
2022-11-17T17:41:29.542Z,18.55
2022-11-17T17:46:30.843Z,16.25
2022-11-17T17:51:32.138Z,18.83
2022-11-17T17:56:36.641Z,21.58
2022-11-17T18:01:40.875Z,21.02
2022-11-17T18:06:44.574Z,18.05
2022-11-17T18:11:47.987Z,16.70
2022-11-17T18:16:48.088Z,16.02
2022-11-17T18:21:52.747Z,15.85
2022-11-17T18:26:54.129Z,16.10
2022-11-17T18:31:54.198Z,16.25
2022-11-17T18:36:59.225Z,18.50
2022-11-17T18:41:58.380Z,15.73
2022-11-17T18:47:02.502Z,15.57
2022-11-17T18:52:04.678Z,14.93
2022-11-17T18:57:04.688Z,14.90
2022-11-17T19:02:03.447Z,11.65
2022-11-17T19:07:03.638Z,15.85
2022-11-17T19:12:02.377Z,14.43
2022-11-17T19:17:01.217Z,13.80
2022-11-17T19:22:02.167Z,13.77
2022-11-17T19:27:02.251Z,17.42
2022-11-17T19:32:01.005Z,11.68
2022-11-17T19:36:59.873Z,15.73
2022-11-17T19:42:00.650Z,15.68
2022-11-17T19:47:03.557Z,14.65
2022-11-17T19:52:02.286Z,13.18
2022-11-17T19:57:02.200Z,14.10
2022-11-17T20:02:03.297Z,14.02
2022-11-17T20:07:02.173Z,15.32
2022-11-17T20:12:01.011Z,26.40
2022-11-17T20:16:59.844Z,20.63
2022-11-17T20:22:01.112Z,24.17
2022-11-17T20:27:01.280Z,45.65
2022-11-17T20:32:00.130Z,15.75
2022-11-17T20:37:43.000Z,15.35
2022-11-17T20:42:42.301Z,13.40
2022-11-17T20:47:41.205Z,15.13
2022-11-17T20:52:40.512Z,15.02
2022-11-17T20:57:40.610Z,13.32
2022-11-17T21:02:39.328Z,16.85
2022-11-17T21:07:38.923Z,14.68
2022-11-17T21:12:37.730Z,45.13
2022-11-17T21:17:55.377Z,21.92
2022-11-17T21:22:54.091Z,11.38
2022-11-17T21:27:53.004Z,14.48
2022-11-17T21:32:53.167Z,19.08
2022-11-17T21:37:51.987Z,14.77
2022-11-17T21:42:50.748Z,16.75
2022-11-17T21:47:49.551Z,13.50
2022-11-17T21:52:49.661Z,11.88
2022-11-17T21:57:51.424Z,12.70
2022-11-17T22:02:50.241Z,14.00
2022-11-17T22:07:50.408Z,13.88
2022-11-17T22:12:49.201Z,13.98
2022-11-17T22:17:48.726Z,12.38
2022-11-17T22:22:49.227Z,12.60
2022-11-17T22:27:49.466Z,13.18
2022-11-17T22:32:48.275Z,14.20
2022-11-17T22:37:47.604Z,14.45
2022-11-17T22:42:46.344Z,11.98
2022-11-17T22:47:46.527Z,14.23
2022-11-17T22:52:45.231Z,14.50
2022-11-17T22:57:44.401Z,15.07
2022-11-17T23:02:43.036Z,14.45
2022-11-17T23:07:43.223Z,14.88
2022-11-17T23:12:42.318Z,15.95
2022-11-17T23:17:42.138Z,17.98
2022-11-17T23:22:42.221Z,14.00
2022-11-17T23:27:40.893Z,15.02
2022-11-17T23:32:39.607Z,23.45
2022-11-17T23:37:39.003Z,24.75
2022-11-17T23:42:43.109Z,26.27
2022-11-17T23:47:42.192Z,22.10
2022-11-17T23:52:40.937Z,17.08
2022-11-17T23:57:41.193Z,17.05
